Time;durP1;ratioP1;P1;durP2;ratioP2;P2;SDS_P1;SDS_P2;PMS_P1;PMS_P2;Temp;Humidity;BMP_temperature;BMP_pressure;BME280_temperature;BME280_humidity;BME280_pressure;Samples;Min_cycle;Max_cycle;Signal;HPM_P1;HPM_P2
2021/05/01 00:00:28;;;;;;;42.05;28.02;;;6.50;99.90;;;;;;5051514;28;20029;-58
2021/05/01 00:02:53;;;;;;;36.72;23.83;;;6.40;99.90;;;;;;5050336;28;20021;-58
2021/05/01 00:05:19;;;;;;;34.20;25.75;;;6.20;99.90;;;;;;5051694;28;20021;-59
2021/05/01 00:07:44;;;;;;;31.60;25.20;;;6.10;99.90;;;;;;5051701;28;20028;-58
2021/05/01 00:10:10;;;;;;;35.55;26.10;;;5.90;99.90;;;;;;5052253;28;20470;-58
2021/05/01 00:12:39;;;;;;;37.70;25.52;;;5.60;99.90;;;;;;5051600;28;20029;-58
2021/05/01 00:15:06;;;;;;;39.75;25.85;;;5.40;99.90;;;;;;5051785;28;20425;-58
2021/05/01 00:17:31;;;;;;;40.45;27.25;;;5.20;99.90;;;;;;5052426;28;20017;-58
2021/05/01 00:19:57;;;;;;;33.88;23.83;;;5.20;99.90;;;;;;5052115;28;20406;-58
2021/05/01 00:22:22;;;;;;;33.10;23.80;;;5.10;99.90;;;;;;5051894;28;20036;-59
2021/05/01 00:24:48;;;;;;;38.10;26.13;;;5.10;99.90;;;;;;5051400;28;20025;-59
2021/05/01 00:27:13;;;;;;;38.47;27.75;;;5.10;99.90;;;;;;5051512;28;20049;-59
2021/05/01 00:29:39;;;;;;;43.58;31.83;;;5.20;99.90;;;;;;5050716;28;20032;-59
2021/05/01 00:32:05;;;;;;;46.08;31.10;;;5.30;99.90;;;;;;5051864;28;20025;-59
2021/05/01 00:34:30;;;;;;;44.47;32.00;;;5.40;99.90;;;;;;5051503;28;20507;-59
2021/05/01 00:36:56;;;;;;;47.88;33.33;;;5.50;99.90;;;;;;5051569;28;20029;-59
2021/05/01 00:39:22;;;;;;;46.05;32.03;;;5.60;99.90;;;;;;5051445;28;20051;-59
2021/05/01 00:41:47;;;;;;;47.38;33.30;;;5.70;99.90;;;;;;5050224;28;20381;-59
2021/05/01 00:44:13;;;;;;;43.30;31.88;;;5.80;99.90;;;;;;5051434;28;20384;-59
2021/05/01 00:46:39;;;;;;;48.78;31.92;;;5.80;99.90;;;;;;5051597;28;20025;-59
2021/05/01 00:49:05;;;;;;;49.78;32.50;;;5.80;99.90;;;;;;5051606;28;20036;-59
2021/05/01 00:51:33;;;;;;;48.88;33.40;;;5.80;99.90;;;;;;5051767;28;20029;-59
2021/05/01 00:53:59;;;;;;;49.38;31.92;;;5.80;99.90;;;;;;5051253;28;20025;-58
2021/05/01 00:56:25;;;;;;;44.38;32.17;;;5.80;99.90;;;;;;5051401;28;20150;-58
2021/05/01 00:58:51;;;;;;;41.90;31.30;;;5.80;99.90;;;;;;5051243;28;20151;-58
2021/05/01 01:01:17;;;;;;;39.88;28.17;;;5.80;99.90;;;;;;5050900;28;20128;-58
2021/05/01 01:03:44;;;;;;;37.30;28.38;;;5.50;99.90;;;;;;5051491;28;20052;-58
2021/05/01 01:06:11;;;;;;;41.35;28.23;;;5.10;99.90;;;;;;5052952;28;20120;-58
2021/05/01 01:08:36;;;;;;;47.42;30.77;;;4.90;99.90;;;;;;5055507;28;20025;-58
2021/05/01 01:11:03;;;;;;;43.65;29.65;;;4.80;99.90;;;;;;5055735;28;20048;-58
2021/05/01 01:13:28;;;;;;;44.05;31.27;;;4.80;99.90;;;;;;5055185;28;20111;-58
2021/05/01 01:15:54;;;;;;;46.25;32.10;;;5.00;99.90;;;;;;5054093;28;20084;-58
2021/05/01 01:18:20;;;;;;;47.47;32.80;;;5.00;99.90;;;;;;5054675;28;20539;-58
2021/05/01 01:20:45;;;;;;;41.83;31.85;;;5.10;99.90;;;;;;5055052;28;20021;-59
2021/05/01 01:23:11;;;;;;;39.15;29.48;;;5.00;99.90;;;;;;5053553;28;20276;-58
2021/05/01 01:25:37;;;;;;;38.80;28.27;;;4.80;99.90;;;;;;5055285;28;20029;-58
2021/05/01 01:28:03;;;;;;;37.35;27.40;;;4.40;99.90;;;;;;5053971;28;20029;-58
2021/05/01 01:30:31;;;;;;;40.75;29.80;;;4.10;99.90;;;;;;5054486;28;20493;-58
2021/05/01 01:32:58;;;;;;;43.88;30.48;;;4.10;99.90;;;;;;5055623;28;20025;-58
2021/05/01 01:35:24;;;;;;;43.60;31.33;;;4.10;99.90;;;;;;5055203;28;20021;-58
2021/05/01 01:37:51;;;;;;;46.00;31.40;;;4.20;99.90;;;;;;5055468;28;20029;-58
2021/05/01 01:40:18;;;;;;;46.63;32.55;;;4.30;99.90;;;;;;5054678;28;20105;-58
2021/05/01 01:42:44;;;;;;;49.63;32.22;;;4.50;99.90;;;;;;5054611;28;20021;-58
2021/05/01 01:45:12;;;;;;;47.67;34.33;;;4.50;99.90;;;;;;5054750;28;20075;-58
2021/05/01 01:47:38;;;;;;;47.15;32.95;;;4.60;99.90;;;;;;5054826;28;20021;-58
2021/05/01 01:50:10;;;;;;;47.50;32.88;;;4.70;99.90;;;;;;5054557;28;20493;-58
2021/05/01 01:52:37;;;;;;;44.17;28.40;;;4.60;99.90;;;;;;5054495;28;20029;-59
2021/05/01 01:55:05;;;;;;;48.85;30.83;;;4.40;99.90;;;;;;5052842;28;20033;-58
2021/05/01 01:57:31;;;;;;;47.53;32.35;;;4.30;99.90;;;;;;5052634;28;20025;-59
2021/05/01 01:59:56;;;;;;;42.78;30.85;;;4.40;99.90;;;;;;5053571;28;20044;-59
2021/05/01 02:02:23;;;;;;;45.20;32.17;;;4.20;99.90;;;;;;5053810;28;20056;-59
2021/05/01 02:04:48;;;;;;;51.22;33.53;;;4.30;99.90;;;;;;5053738;28;20033;-59
2021/05/01 02:07:14;;;;;;;43.92;30.55;;;4.30;99.90;;;;;;5054673;28;20506;-59
2021/05/01 02:09:39;;;;;;;48.75;30.05;;;4.20;99.90;;;;;;5054417;28;20056;-59
2021/05/01 02:12:05;;;;;;;39.15;31.33;;;4.20;99.90;;;;;;5054402;28;20063;-59
2021/05/01 02:14:31;;;;;;;47.35;32.63;;;4.20;99.90;;;;;;5054544;28;20021;-59
2021/05/01 02:16:56;;;;;;;48.35;33.63;;;4.30;99.90;;;;;;5052409;28;20478;-59
2021/05/01 02:19:22;;;;;;;47.90;32.97;;;4.40;99.90;;;;;;5053539;28;20071;-59
2021/05/01 02:21:48;;;;;;;42.85;31.48;;;4.40;99.90;;;;;;5054249;28;20037;-59
2021/05/01 02:24:14;;;;;;;51.40;32.22;;;4.30;99.90;;;;;;5053963;28;20032;-59
2021/05/01 02:26:40;;;;;;;46.38;34.28;;;4.20;99.90;;;;;;5054469;28;21030;-59
2021/05/01 02:29:05;;;;;;;50.33;34.88;;;4.30;99.90;;;;;;5053769;28;20067;-59
2021/05/01 02:31:31;;;;;;;50.58;35.65;;;4.30;99.90;;;;;;5054024;28;20029;-59
2021/05/01 02:33:56;;;;;;;46.20;31.85;;;4.40;99.90;;;;;;5052368;28;20179;-59
2021/05/01 02:36:22;;;;;;;49.50;31.67;;;4.20;99.90;;;;;;5054271;28;20025;-59
2021/05/01 02:38:48;;;;;;;50.35;34.35;;;3.80;99.90;;;;;;5053855;28;20043;-58
2021/05/01 02:41:13;;;;;;;51.15;35.53;;;3.70;99.90;;;;;;5053242;28;20103;-58
2021/05/01 02:43:39;;;;;;;46.60;31.90;;;3.80;99.90;;;;;;5053708;28;20043;-58
2021/05/01 02:46:04;;;;;;;44.28;31.25;;;4.00;99.90;;;;;;5053617;28;20021;-58
2021/05/01 02:48:31;;;;;;;50.90;36.47;;;4.00;99.90;;;;;;5053766;28;20028;-58
2021/05/01 02:50:58;;;;;;;50.42;36.45;;;4.10;99.90;;;;;;5053757;28;20114;-58
2021/05/01 02:53:24;;;;;;;46.88;32.97;;;4.20;99.90;;;;;;5053318;28;20248;-58
2021/05/01 02:55:50;;;;;;;42.75;31.42;;;4.10;99.90;;;;;;5053218;28;20021;-58
2021/05/01 02:58:16;;;;;;;42.42;29.80;;;4.00;99.90;;;;;;5053206;28;20049;-58
2021/05/01 03:00:41;;;;;;;40.65;31.60;;;3.70;99.90;;;;;;5053279;28;20028;-58
2021/05/01 03:03:07;;;;;;;46.88;32.17;;;3.40;99.90;;;;;;5052914;28;20056;-58
2021/05/01 03:05:33;;;;;;;47.33;33.10;;;3.30;99.90;;;;;;5053148;28;20036;-58
2021/05/01 03:07:59;;;;;;;56.55;36.15;;;3.30;99.90;;;;;;5053577;28;20090;-58
2021/05/01 03:10:26;;;;;;;49.50;35.83;;;3.40;99.90;;;;;;5053150;28;20029;-58
2021/05/01 03:12:55;;;;;;;56.75;38.30;;;3.50;99.90;;;;;;5068381;28;20025;-58
2021/05/01 03:15:22;;;;;;;56.53;37.45;;;3.60;99.90;;;;;;5052945;28;20116;-58
2021/05/01 03:17:48;;;;;;;67.78;40.60;;;3.70;99.90;;;;;;5053273;28;20484;-58
2021/05/01 03:20:15;;;;;;;60.33;40.72;;;3.80;99.90;;;;;;5053034;28;20028;-58
2021/05/01 03:22:41;;;;;;;50.33;35.30;;;3.90;99.90;;;;;;5053055;28;20036;-58
2021/05/01 03:25:09;;;;;;;53.88;35.53;;;3.80;99.90;;;;;;5051422;28;20079;-58
2021/05/01 03:27:35;;;;;;;47.20;33.65;;;3.70;99.90;;;;;;5053409;28;20033;-58
2021/05/01 03:30:01;;;;;;;44.85;32.67;;;3.50;99.90;;;;;;5051856;28;20116;-58
2021/05/01 03:32:27;;;;;;;48.50;34.13;;;3.50;99.90;;;;;;5052842;28;20033;-58
2021/05/01 03:34:53;;;;;;;48.95;35.28;;;3.70;99.90;;;;;;5052392;28;20425;-58
2021/05/01 03:37:19;;;;;;;47.75;34.95;;;3.70;99.90;;;;;;5052477;28;20128;-58
2021/05/01 03:39:44;;;;;;;46.75;33.22;;;3.60;99.90;;;;;;5052655;28;20029;-58
2021/05/01 03:42:10;;;;;;;44.78;32.80;;;3.30;99.90;;;;;;5052814;28;20021;-58
2021/05/01 03:44:36;;;;;;;43.00;30.60;;;3.20;99.90;;;;;;5052569;28;20474;-58
2021/05/01 03:47:02;;;;;;;42.50;31.27;;;3.10;99.90;;;;;;5052478;28;20046;-58
2021/05/01 03:49:27;;;;;;;47.00;33.20;;;3.00;99.90;;;;;;5051904;28;20036;-58
2021/05/01 03:51:53;;;;;;;54.55;34.22;;;3.00;99.90;;;;;;5052132;28;20025;-58
2021/05/01 03:54:19;;;;;;;56.13;37.03;;;3.00;99.90;;;;;;5051529;28;20021;-57
2021/05/01 03:56:44;;;;;;;58.60;39.45;;;3.00;99.90;;;;;;5051294;28;20025;-58
2021/05/01 03:59:10;;;;;;;62.08;40.97;;;3.10;99.90;;;;;;5051930;28;20045;-58
2021/05/01 04:01:36;;;;;;;68.03;45.25;;;3.20;99.90;;;;;;5052356;28;20029;-58
2021/05/01 04:04:02;;;;;;;66.80;44.47;;;3.30;99.90;;;;;;5052237;28;20485;-58
2021/05/01 04:06:28;;;;;;;66.63;45.70;;;3.40;99.90;;;;;;5052681;28;20037;-58
2021/05/01 04:08:54;;;;;;;65.93;44.22;;;3.50;99.90;;;;;;5052298;28;20052;-58
2021/05/01 04:11:19;;;;;;;70.50;45.30;;;3.60;99.90;;;;;;5052778;28;20082;-58
2021/05/01 04:13:47;;;;;;;65.60;42.42;;;3.70;99.90;;;;;;5052059;28;20029;-58
2021/05/01 04:16:17;;;;;;;58.03;41.35;;;3.70;99.90;;;;;;5050563;28;20025;-58
2021/05/01 04:18:45;;;;;;;57.47;36.35;;;3.80;99.90;;;;;;5052205;28;20032;-58
2021/05/01 04:21:10;;;;;;;55.85;36.35;;;3.70;99.90;;;;;;5051708;28;20033;-58
2021/05/01 04:23:36;;;;;;;51.67;35.15;;;3.40;99.90;;;;;;5051004;28;20116;-58
2021/05/01 04:26:03;;;;;;;49.20;34.78;;;3.20;99.90;;;;;;5052146;28;20444;-58
2021/05/01 04:28:29;;;;;;;59.10;37.97;;;3.00;99.90;;;;;;5052718;28;20059;-58
2021/05/01 04:30:55;;;;;;;57.22;38.65;;;2.90;99.90;;;;;;5051953;28;20037;-58
2021/05/01 04:33:21;;;;;;;62.78;39.85;;;2.80;99.90;;;;;;5052093;28;20033;-58
2021/05/01 04:35:47;;;;;;;70.10;42.15;;;2.60;99.90;;;;;;5052099;28;20517;-58
2021/05/01 04:38:13;;;;;;;68.70;42.40;;;2.60;99.90;;;;;;5052246;28;20025;-58
2021/05/01 04:40:38;;;;;;;64.95;42.90;;;2.70;99.90;;;;;;5052357;28;20478;-58
2021/05/01 04:43:06;;;;;;;63.65;42.92;;;2.70;99.90;;;;;;5055503;28;20033;-58
2021/05/01 04:45:32;;;;;;;74.70;44.88;;;3.00;99.90;;;;;;5054954;28;20032;-58
2021/05/01 04:47:58;;;;;;;73.65;48.15;;;3.10;99.90;;;;;;5055997;28;20390;-58
2021/05/01 04:50:23;;;;;;;71.20;47.70;;;3.40;99.90;;;;;;5055329;28;20029;-58
2021/05/01 04:52:49;;;;;;;69.63;45.35;;;3.50;99.90;;;;;;5055337;28;20033;-57
2021/05/01 04:55:16;;;;;;;65.28;43.47;;;3.70;99.90;;;;;;5055652;28;20420;-58
2021/05/01 04:57:49;;;;;;;54.90;37.85;;;3.80;99.90;;;;;;5055681;28;20422;-58
2021/05/01 05:00:17;;;;;;;53.90;36.67;;;3.40;99.90;;;;;;5056287;28;20033;-58
2021/05/01 05:02:43;;;;;;;58.03;39.58;;;3.10;99.90;;;;;;5055949;28;20029;-58
2021/05/01 05:05:10;;;;;;;59.67;38.08;;;2.90;99.90;;;;;;5055640;28;20029;-58
2021/05/01 05:07:36;;;;;;;55.78;37.97;;;2.90;99.90;;;;;;5055634;28;20513;-58
2021/05/01 05:10:02;;;;;;;56.00;36.47;;;2.80;99.90;;;;;;5055679;28;20025;-58
2021/05/01 05:12:28;;;;;;;52.53;36.63;;;2.80;99.90;;;;;;5055151;28;20028;-58
2021/05/01 05:14:54;;;;;;;47.72;35.22;;;2.80;99.90;;;;;;5055105;28;20317;-58
2021/05/01 05:17:19;;;;;;;47.38;33.83;;;2.70;99.90;;;;;;5055722;28;20462;-58
2021/05/01 05:19:46;;;;;;;49.63;33.95;;;2.70;99.90;;;;;;5055062;28;20103;-58
2021/05/01 05:22:11;;;;;;;45.08;32.40;;;2.70;99.90;;;;;;5054803;28;20565;-58
2021/05/01 05:24:38;;;;;;;49.80;35.30;;;2.70;99.90;;;;;;5055236;28;20056;-58
2021/05/01 05:27:04;;;;;;;49.33;34.95;;;2.50;99.90;;;;;;5055530;28;20035;-58
2021/05/01 05:29:31;;;;;;;51.08;36.03;;;2.50;99.90;;;;;;5054931;28;20029;-58
2021/05/01 05:31:56;;;;;;;50.08;35.58;;;2.40;99.90;;;;;;5054990;28;20124;-58
2021/05/01 05:34:22;;;;;;;52.03;34.97;;;2.50;99.90;;;;;;5053486;28;20535;-58
2021/05/01 05:36:48;;;;;;;56.55;36.30;;;2.60;99.90;;;;;;5054302;28;20029;-58
2021/05/01 05:39:15;;;;;;;53.50;36.65;;;2.50;99.90;;;;;;5054624;28;20043;-58
2021/05/01 05:41:41;;;;;;;62.45;37.17;;;2.60;99.90;;;;;;5053973;28;20017;-58
2021/05/01 05:44:07;;;;;;;70.07;38.70;;;2.60;99.90;;;;;;5054683;28;20029;-58
2021/05/01 05:46:33;;;;;;;75.93;39.53;;;2.60;99.90;;;;;;5054495;28;20083;-58
2021/05/01 05:48:58;;;;;;;66.97;36.95;;;2.50;99.90;;;;;;5054840;28;20025;-58
2021/05/01 05:51:24;;;;;;;68.00;38.60;;;2.50;99.90;;;;;;5055082;28;20032;-58
2021/05/01 05:53:50;;;;;;;68.13;39.72;;;2.50;99.90;;;;;;5053538;28;20033;-57
2021/05/01 05:56:16;;;;;;;65.95;40.35;;;2.40;99.90;;;;;;5054823;28;20017;-57
2021/05/01 05:58:42;;;;;;;63.15;41.97;;;2.60;99.90;;;;;;5054187;28;20489;-57
2021/05/01 06:01:08;;;;;;;58.67;39.92;;;2.70;99.90;;;;;;5054104;28;20017;-57
2021/05/01 06:03:36;;;;;;;57.63;38.92;;;2.90;99.90;;;;;;5055065;28;20017;-57
2021/05/01 06:06:12;;;;;;;70.63;39.75;;;3.10;99.90;;;;;;5054606;28;20103;-57
2021/05/01 06:08:38;;;;;;;114.50;37.05;;;3.30;99.90;;;;;;5054972;28;20017;-59
2021/05/01 06:11:04;;;;;;;76.20;34.88;;;3.30;99.90;;;;;;5054754;28;20060;-58
2021/05/01 06:13:34;;;;;;;64.43;33.92;;;3.30;99.90;;;;;;5054502;28;20025;-58
2021/05/01 06:16:01;;;;;;;75.75;34.85;;;3.30;99.90;;;;;;5054748;28;20481;-58
2021/05/01 06:18:33;;;;;;;76.55;33.47;;;3.30;99.90;;;;;;5054698;28;20385;-58
2021/05/01 06:20:59;;;;;;;106.03;35.93;;;3.50;99.90;;;;;;5054447;28;20024;-58
2021/05/01 06:23:25;;;;;;;59.17;33.75;;;3.70;99.90;;;;;;5054244;28;20493;-58
2021/05/01 06:25:52;;;;;;;61.97;35.47;;;3.80;99.90;;;;;;5053665;28;20044;-58
2021/05/01 06:28:17;;;;;;;68.15;37.00;;;4.00;99.90;;;;;;5054181;28;20029;-58
2021/05/01 06:30:44;;;;;;;55.90;36.60;;;3.90;99.90;;;;;;5053690;28;20529;-58
2021/05/01 06:33:11;;;;;;;55.83;38.00;;;4.10;99.90;;;;;;5053366;28;20393;-58
2021/05/01 06:35:38;;;;;;;56.72;40.15;;;4.40;99.90;;;;;;5054193;28;20028;-58
2021/05/01 06:38:05;;;;;;;53.42;39.63;;;4.80;99.90;;;;;;5052830;28;20028;-59
2021/05/01 06:40:34;;;;;;;52.90;37.72;;;5.20;99.90;;;;;;5054325;28;20525;-59
2021/05/01 06:43:07;;;;;;;50.00;36.78;;;5.60;99.90;;;;;;5054066;28;20378;-59
2021/05/01 06:45:35;;;;;;;54.47;39.03;;;5.90;99.90;;;;;;5054178;28;20476;-59
2021/05/01 06:48:03;;;;;;;55.63;37.58;;;6.10;99.90;;;;;;5054202;28;20190;-59
2021/05/01 06:50:30;;;;;;;48.95;35.28;;;6.50;99.90;;;;;;5051882;28;20032;-59
2021/05/01 06:52:57;;;;;;;47.85;35.25;;;6.70;99.90;;;;;;5053405;28;20025;-58
2021/05/01 06:55:27;;;;;;;48.33;35.03;;;6.90;99.90;;;;;;5053545;28;20500;-58
2021/05/01 06:57:53;;;;;;;46.42;31.80;;;7.00;99.90;;;;;;5052910;28;20048;-58
2021/05/01 07:00:21;;;;;;;43.10;31.23;;;7.30;99.90;;;;;;5052972;28;20025;-58
2021/05/01 07:02:49;;;;;;;43.75;31.08;;;7.40;99.90;;;;;;5052775;28;20426;-58
2021/05/01 07:05:23;;;;;;;35.08;26.35;;;7.70;99.90;;;;;;5052197;28;20086;-58
2021/05/01 07:07:49;;;;;;;29.52;22.52;;;8.70;99.90;;;;;;5052764;28;20025;-59
2021/05/01 07:10:17;;;;;;;26.30;19.25;;;9.90;99.90;;;;;;5052090;28;20111;-59
2021/05/01 07:12:43;;;;;;;36.42;22.60;;;10.20;99.90;;;;;;5052468;28;20044;-59
2021/05/01 07:15:11;;;;;;;27.23;18.40;;;10.40;99.90;;;;;;5052250;28;20068;-59
2021/05/01 07:17:38;;;;;;;25.48;16.17;;;10.90;99.90;;;;;;5050608;28;20440;-59
2021/05/01 07:20:06;;;;;;;21.58;13.07;;;11.60;99.90;;;;;;5051598;28;20067;-59
2021/05/01 07:22:31;;;;;;;17.40;13.45;;;12.80;99.90;;;;;;5051731;28;20025;-59
2021/05/01 07:24:58;;;;;;;23.65;11.95;;;13.50;99.90;;;;;;5051527;28;20473;-59
2021/05/01 07:27:50;;;;;;;22.40;12.48;;;14.30;99.80;;;;;;5051822;28;20021;-59
2021/05/01 07:30:18;;;;;;;18.05;11.20;;;14.10;99.90;;;;;;5051201;28;20029;-59
2021/05/01 07:32:47;;;;;;;17.75;11.00;;;14.60;99.40;;;;;;5051231;28;20036;-59
2021/05/01 07:35:15;;;;;;;15.45;10.30;;;13.80;99.90;;;;;;5051124;28;20436;-59
2021/05/01 07:37:44;;;;;;;16.05;12.68;;;12.50;99.90;;;;;;5051502;28;20021;-59
2021/05/01 07:40:12;;;;;;;20.50;13.07;;;11.00;99.90;;;;;;5051315;28;20013;-59
2021/05/01 07:42:43;;;;;;;20.70;13.43;;;10.30;99.90;;;;;;5050289;28;20482;-59
2021/05/01 07:45:14;;;;;;;22.77;15.50;;;10.30;99.90;;;;;;5051554;28;20029;-59
2021/05/01 07:47:41;;;;;;;23.13;16.25;;;10.40;99.90;;;;;;5050697;28;20029;-59
2021/05/01 07:50:08;;;;;;;21.52;15.55;;;10.60;99.90;;;;;;5051527;28;20021;-59
2021/05/01 07:52:36;;;;;;;15.93;13.05;;;11.20;99.90;;;;;;5051375;28;20040;-59
2021/05/01 07:55:03;;;;;;;17.23;11.35;;;12.50;99.90;;;;;;5050732;28;20056;-60
2021/05/01 07:57:29;;;;;;;20.48;11.57;;;13.90;99.90;;;;;;5051068;28;20095;-60
2021/05/01 07:59:55;;;;;;;15.18;10.48;;;14.50;99.90;;;;;;5050698;28;20045;-60
2021/05/01 08:02:20;;;;;;;15.18;11.13;;;14.50;99.90;;;;;;5051107;28;20420;-60
2021/05/01 08:04:46;;;;;;;21.27;14.68;;;12.40;99.90;;;;;;5051064;28;20033;-59
2021/05/01 08:07:12;;;;;;;22.58;15.80;;;11.60;99.90;;;;;;5051948;28;20394;-59
2021/05/01 08:09:37;;;;;;;17.65;14.02;;;11.90;99.90;;;;;;5050939;28;20066;-60
2021/05/01 08:12:03;;;;;;;22.23;13.63;;;12.50;99.90;;;;;;5050946;28;20028;-60
2021/05/01 08:14:29;;;;;;;22.23;12.45;;;13.60;99.90;;;;;;5050738;28;20100;-60
2021/05/01 08:16:55;;;;;;;14.38;11.68;;;15.20;99.20;;;;;;5050227;28;20159;-60
2021/05/01 08:19:20;;;;;;;17.92;11.70;;;15.70;97.10;;;;;;5050797;28;20103;-60
2021/05/01 08:21:46;;;;;;;15.02;10.48;;;15.60;94.20;;;;;;5050738;28;20040;-60
2021/05/01 08:24:12;;;;;;;12.98;10.52;;;15.10;94.70;;;;;;5050635;28;20139;-60
2021/05/01 08:26:39;;;;;;;16.02;10.07;;;14.50;95.20;;;;;;5050928;28;20037;-60
2021/05/01 08:29:05;;;;;;;14.48;10.15;;;14.40;95.10;;;;;;5050385;28;20462;-60
2021/05/01 08:31:30;;;;;;;14.85;9.95;;;15.10;93.50;;;;;;5050156;28;20033;-60
2021/05/01 08:33:56;;;;;;;13.05;8.75;;;15.20;93.00;;;;;;5050403;28;20029;-60
2021/05/01 08:36:22;;;;;;;10.65;7.90;;;16.20;88.70;;;;;;5050727;28;20431;-60
2021/05/01 08:38:48;;;;;;;12.10;8.02;;;16.80;81.60;;;;;;5050830;28;20017;-60
2021/05/01 08:41:13;;;;;;;9.85;7.75;;;17.70;76.30;;;;;;5050665;28;20386;-61
2021/05/01 08:43:39;;;;;;;10.65;7.32;;;18.10;69.50;;;;;;5050499;28;20044;-61
2021/05/01 08:46:14;;;;;;;11.15;7.55;;;17.50;67.70;;;;;;5051054;28;20495;-61
2021/05/01 08:48:47;;;;;;;12.43;8.07;;;18.30;64.80;;;;;;5049393;28;20033;-60
2021/05/01 08:51:14;;;;;;;10.02;8.40;;;17.30;65.60;;;;;;5050643;28;20024;-60
2021/05/01 08:53:40;;;;;;;10.88;8.80;;;16.10;69.40;;;;;;5050131;28;20035;-60
2021/05/01 08:56:06;;;;;;;9.82;8.60;;;15.40;73.80;;;;;;5050529;28;20029;-60
2021/05/01 08:58:32;;;;;;;15.70;8.85;;;14.90;77.30;;;;;;5050173;28;20076;-60
2021/05/01 09:00:58;;;;;;;10.25;8.23;;;14.40;78.40;;;;;;5050344;28;20029;-60
2021/05/01 09:03:25;;;;;;;12.52;8.60;;;14.20;76.90;;;;;;5050697;28;20037;-60
2021/05/01 09:05:53;;;;;;;10.93;8.65;;;14.40;78.20;;;;;;5050274;28;20056;-60
2021/05/01 09:08:19;;;;;;;15.30;8.70;;;14.70;77.90;;;;;;5049047;28;20032;-60
2021/05/01 09:10:47;;;;;;;10.55;8.25;;;15.20;75.70;;;;;;5050170;28;20147;-60
2021/05/01 09:13:25;;;;;;;11.70;8.23;;;15.80;72.00;;;;;;5048791;28;20029;-60
2021/05/01 09:16:04;;;;;;;14.35;8.48;;;15.60;70.60;;;;;;5050160;28;20037;-60
2021/05/01 09:18:54;;;;;;;9.85;8.20;;;15.30;72.00;;;;;;5049935;28;20032;-60
2021/05/01 09:21:25;;;;;;;10.60;8.63;;;14.40;73.80;;;;;;5050205;28;20481;-59
2021/05/01 09:23:52;;;;;;;13.57;8.85;;;14.70;74.00;;;;;;5050259;28;20538;-61
2021/05/01 09:26:32;;;;;;;10.63;8.88;;;16.00;70.60;;;;;;5050263;28;20025;-61
2021/05/01 09:28:59;;;;;;;11.93;9.30;;;17.10;66.80;;;;;;5053863;28;20029;-60
2021/05/01 09:31:29;;;;;;;13.52;9.30;;;16.50;65.90;;;;;;5053209;28;20025;-60
2021/05/01 09:33:58;;;;;;;11.25;9.40;;;15.80;67.10;;;;;;5053819;28;20017;-59
2021/05/01 09:36:25;;;;;;;12.90;9.85;;;15.80;68.60;;;;;;5053592;28;20419;-59
2021/05/01 09:38:51;;;;;;;11.93;9.93;;;15.80;69.40;;;;;;5053318;28;20028;-59
2021/05/01 09:41:25;;;;;;;11.88;10.02;;;15.10;69.50;;;;;;5053466;28;20028;-59
2021/05/01 09:43:58;;;;;;;11.98;9.98;;;14.50;72.40;;;;;;5053363;28;20871;-59
2021/05/01 09:46:24;;;;;;;11.25;9.18;;;15.10;72.30;;;;;;5053580;28;20025;-59
2021/05/01 09:49:12;;;;;;;14.88;9.55;;;16.50;67.10;;;;;;5053654;28;20461;-61
2021/05/01 09:51:56;;;;;;;11.20;8.90;;;17.90;61.40;;;;;;5053737;28;20088;-61
2021/05/01 09:54:37;;;;;;;11.23;8.75;;;18.50;57.90;;;;;;5053377;28;20048;-61
2021/05/01 09:57:10;;;;;;;11.20;9.43;;;18.70;55.90;;;;;;5053559;28;20036;-61
2021/05/01 09:59:43;;;;;;;12.00;9.10;;;19.00;56.40;;;;;;5052978;28;20564;-61
2021/05/01 10:02:11;;;;;;;9.73;8.77;;;19.30;56.30;;;;;;5053452;28;20020;-61
2021/05/01 10:04:38;;;;;;;11.65;9.15;;;19.40;54.60;;;;;;5053391;28;20055;-61
2021/05/01 10:07:13;;;;;;;10.05;9.07;;;19.30;54.00;;;;;;5053384;28;20490;-61
2021/05/01 10:09:43;;;;;;;13.68;8.65;;;18.80;55.00;;;;;;5053517;28;20052;-61
2021/05/01 10:12:11;;;;;;;9.40;8.05;;;19.30;53.90;;;;;;5053333;28;20025;-61
2021/05/01 10:14:47;;;;;;;9.93;8.32;;;19.40;51.00;;;;;;5052961;28;20029;-61
2021/05/01 10:17:17;;;;;;;9.80;8.55;;;18.60;50.60;;;;;;5053191;28;20036;-61
2021/05/01 10:19:48;;;;;;;11.00;9.15;;;19.20;50.10;;;;;;5053039;28;20508;-61
2021/05/01 10:22:31;;;;;;;12.25;9.07;;;17.40;55.20;;;;;;5052610;28;20469;-61
2021/05/01 10:25:04;;;;;;;9.75;8.15;;;18.10;53.90;;;;;;5052568;28;20029;-61
2021/05/01 10:27:40;;;;;;;;;;;17.60;52.70;;;;;;5053028;28;20025;-61
2021/05/01 10:30:28;;;;;;;12.43;8.82;;;17.20;54.90;;;;;;5052257;28;19944;-61
2021/05/01 10:33:20;;;;;;;13.40;8.55;;;18.50;52.40;;;;;;5052643;28;20449;-61
2021/05/01 10:36:23;;;;;;;9.48;7.90;;;17.70;52.00;;;;;;5054617;28;20087;-61
2021/05/01 10:39:06;;;;;;;10.88;8.48;;;17.80;52.50;;;;;;5052063;28;20108;-61
2021/05/01 10:41:34;;;;;;;9.85;8.88;;;18.60;52.70;;;;;;5053011;28;20025;-61
2021/05/01 10:44:02;;;;;;;13.90;8.75;;;19.10;51.10;;;;;;5053272;28;20052;-61
2021/05/01 10:46:32;;;;;;;9.80;8.15;;;19.80;49.50;;;;;;5053112;28;20106;-61
2021/05/01 10:49:04;;;;;;;10.40;7.68;;;20.30;46.80;;;;;;5052829;28;20063;-61
2021/05/01 10:51:39;;;;;;;8.20;7.47;;;20.00;46.70;;;;;;5052388;28;20029;-61
2021/05/01 10:54:10;;;;;;;9.63;8.18;;;19.60;48.10;;;;;;5052137;28;20040;-61
2021/05/01 10:56:39;;;;;;;10.30;7.80;;;19.30;49.20;;;;;;5052327;28;20017;-61
2021/05/01 10:59:09;;;;;;;10.23;7.97;;;19.50;47.10;;;;;;5052124;28;20036;-61
2021/05/01 11:01:42;;;;;;;10.23;7.63;;;20.30;45.90;;;;;;5052838;28;20075;-61
2021/05/01 11:04:10;;;;;;;11.13;7.78;;;20.10;45.00;;;;;;5052512;28;20100;-62
2021/05/01 11:06:46;;;;;;;9.23;8.32;;;19.60;46.60;;;;;;5052129;28;20035;-62
2021/05/01 11:09:24;;;;;;;9.40;8.40;;;18.50;48.60;;;;;;5051636;28;20025;-61
2021/05/01 11:11:57;;;;;;;10.93;8.38;;;17.00;51.80;;;;;;5051884;28;20025;-61
2021/05/01 11:14:27;;;;;;;10.68;8.13;;;17.10;52.70;;;;;;5051655;28;20452;-61
2021/05/01 11:17:12;;;;;;;12.57;8.63;;;17.10;51.90;;;;;;5051743;28;20021;-61
2021/05/01 11:19:45;;;;;;;13.60;9.65;;;16.90;52.20;;;;;;5051509;28;20063;-61
2021/05/01 11:22:19;;;;;;;11.88;9.35;;;15.80;54.10;;;;;;5050061;28;20044;-61
2021/05/01 11:24:45;;;;;;;11.10;8.65;;;16.20;56.20;;;;;;5051433;28;20116;-61
2021/05/01 11:27:11;;;;;;;11.07;8.85;;;17.80;53.20;;;;;;5051439;28;20033;-61
2021/05/01 11:29:39;;;;;;;10.35;8.35;;;18.80;49.80;;;;;;5051556;28;20036;-61
2021/05/01 11:32:05;;;;;;;9.82;8.73;;;19.50;48.00;;;;;;5051534;28;20090;-61
2021/05/01 11:34:32;;;;;;;10.10;8.27;;;20.30;46.90;;;;;;5051280;28;20595;-61
2021/05/01 11:37:06;;;;;;;10.82;8.40;;;19.50;47.60;;;;;;5051525;28;20025;-61
2021/05/01 11:39:37;;;;;;;10.68;8.13;;;19.80;47.10;;;;;;5051595;28;20045;-61
2021/05/01 11:42:03;;;;;;;9.38;8.25;;;20.00;45.60;;;;;;5051331;28;20021;-61
2021/05/01 11:44:29;;;;;;;9.27;7.88;;;18.70;48.40;;;;;;5051511;28;20029;-61
2021/05/01 11:46:57;;;;;;;12.23;7.95;;;19.60;47.30;;;;;;5051351;28;20064;-62
2021/05/01 11:49:25;;;;;;;9.32;8.23;;;20.90;45.50;;;;;;5051269;28;20021;-62
2021/05/01 11:52:09;;;;;;;9.57;7.97;;;20.00;46.40;;;;;;5050205;28;20286;-62
2021/05/01 11:55:00;;;;;;;7.75;7.05;;;20.90;45.80;;;;;;5051286;28;20103;-61
2021/05/01 11:57:33;;;;;;;10.15;7.60;;;22.00;43.10;;;;;;5051670;28;20389;-61
2021/05/01 12:00:00;;;;;;;8.45;7.57;;;20.80;43.40;;;;;;5050894;28;20041;-61
2021/05/01 12:02:41;;;;;;;8.23;7.50;;;19.40;45.30;;;;;;5050878;28;20025;-61
2021/05/01 12:05:24;;;;;;;9.10;8.18;;;18.60;47.60;;;;;;5051027;28;20087;-61
2021/05/01 12:08:07;;;;;;;11.05;8.75;;;17.50;50.60;;;;;;5051124;28;20032;-61
2021/05/01 12:10:38;;;;;;;11.70;9.15;;;16.70;53.40;;;;;;5050970;28;20029;-61
2021/05/01 12:13:11;;;;;;;11.45;8.90;;;16.30;57.70;;;;;;5050656;28;20032;-61
2021/05/01 12:15:39;;;;;;;10.60;9.60;;;15.60;60.00;;;;;;5050642;28;20032;-61
2021/05/01 12:18:06;;;;;;;10.73;9.32;;;15.10;61.50;;;;;;5050710;28;20100;-61
2021/05/01 12:20:35;;;;;;;10.30;9.00;;;15.00;62.70;;;;;;5050703;28;20060;-59
2021/05/01 12:23:09;;;;;;;13.38;9.80;;;14.60;59.50;;;;;;5051267;28;20064;-59
2021/05/01 12:25:37;;;;;;;11.95;10.30;;;14.50;60.40;;;;;;5050926;28;20036;-60
2021/05/01 12:28:05;;;;;;;11.63;10.40;;;14.40;61.20;;;;;;5050834;28;20028;-60
2021/05/01 12:30:36;;;;;;;11.68;10.40;;;14.30;61.40;;;;;;5050559;28;20032;-60
2021/05/01 12:33:22;;;;;;;13.35;10.50;;;14.30;61.50;;;;;;5050535;28;20033;-61
2021/05/01 12:36:00;;;;;;;11.55;10.38;;;14.40;62.10;;;;;;5050421;28;20029;-60
2021/05/01 12:38:30;;;;;;;13.85;10.27;;;14.40;61.90;;;;;;5050482;28;20374;-61
2021/05/01 12:41:08;;;;;;;12.35;10.27;;;14.40;61.50;;;;;;5050422;28;20509;-60